sensor_id;sensor_type;location;lat;lon;timestamp;pressure;altitude;pressure_sealevel;temperature;humidity
47742;BME280;33504;52.066;6.096;2022-10-16T00:02:01;100913.60;;;14.48;50.74
47742;BME280;33504;52.066;6.096;2022-10-16T00:04:28;100910.25;;;14.55;50.91
47742;BME280;33504;52.066;6.096;2022-10-16T00:06:54;100912.36;;;14.45;50.76
47742;BME280;33504;52.066;6.096;2022-10-16T00:09:22;100908.38;;;14.67;50.84
47742;BME280;33504;52.066;6.096;2022-10-16T00:11:49;100908.63;;;14.29;50.79
47742;BME280;33504;52.066;6.096;2022-10-16T00:14:16;100912.54;;;14.44;50.80
47742;BME280;33504;52.066;6.096;2022-10-16T00:16:42;100914.21;;;14.34;51.08
47742;BME280;33504;52.066;6.096;2022-10-16T00:19:11;100911.34;;;14.15;51.43
47742;BME280;33504;52.066;6.096;2022-10-16T00:21:38;100915.53;;;13.58;52.02
47742;BME280;33504;52.066;6.096;2022-10-16T00:24:07;100916.78;;;14.19;51.38
47742;BME280;33504;52.066;6.096;2022-10-16T00:26:36;100913.37;;;14.42;51.43
47742;BME280;33504;52.066;6.096;2022-10-16T00:29:05;100912.68;;;14.06;51.17
47742;BME280;33504;52.066;6.096;2022-10-16T00:31:32;100914.99;;;14.25;51.22
47742;BME280;33504;52.066;6.096;2022-10-16T00:33:59;100913.46;;;13.97;51.60
47742;BME280;33504;52.066;6.096;2022-10-16T00:36:26;100908.51;;;13.85;52.41
47742;BME280;33504;52.066;6.096;2022-10-16T00:38:54;100907.85;;;13.27;53.27
47742;BME280;33504;52.066;6.096;2022-10-16T00:41:24;100912.82;;;13.32;53.81
47742;BME280;33504;52.066;6.096;2022-10-16T00:43:54;100914.69;;;13.56;53.47
47742;BME280;33504;52.066;6.096;2022-10-16T00:46:24;100913.55;;;13.88;52.83
47742;BME280;33504;52.066;6.096;2022-10-16T00:48:55;100915.97;;;13.71;53.47
47742;BME280;33504;52.066;6.096;2022-10-16T00:51:28;100913.36;;;13.46;53.54
47742;BME280;33504;52.066;6.096;2022-10-16T00:53:57;100914.82;;;13.98;52.97
47742;BME280;33504;52.066;6.096;2022-10-16T00:56:25;100921.45;;;14.20;52.48
47742;BME280;33504;52.066;6.096;2022-10-16T00:58:53;100920.07;;;14.12;52.87
47742;BME280;33504;52.066;6.096;2022-10-16T01:01:20;100923.20;;;13.87;53.20
47742;BME280;33504;52.066;6.096;2022-10-16T01:03:48;100921.11;;;14.09;52.87
47742;BME280;33504;52.066;6.096;2022-10-16T01:06:24;100917.04;;;14.16;52.79
47742;BME280;33504;52.066;6.096;2022-10-16T01:09:04;100919.48;;;13.49;53.74
47742;BME280;33504;52.066;6.096;2022-10-16T01:11:41;100921.16;;;13.94;53.45
47742;BME280;33504;52.066;6.096;2022-10-16T01:14:17;100922.26;;;13.93;53.39
47742;BME280;33504;52.066;6.096;2022-10-16T01:16:51;100931.41;;;13.98;53.35
47742;BME280;33504;52.066;6.096;2022-10-16T01:19:31;100936.49;;;13.82;53.20
47742;BME280;33504;52.066;6.096;2022-10-16T01:22:04;100932.17;;;14.21;52.88
47742;BME280;33504;52.066;6.096;2022-10-16T01:24:39;100925.16;;;14.24;52.80
47742;BME280;33504;52.066;6.096;2022-10-16T01:27:10;100923.18;;;13.94;53.51
47742;BME280;33504;52.066;6.096;2022-10-16T01:29:44;100914.12;;;14.13;53.20
47742;BME280;33504;52.066;6.096;2022-10-16T01:32:19;100904.98;;;14.26;52.89
47742;BME280;33504;52.066;6.096;2022-10-16T01:34:51;100902.11;;;13.77;53.45
47742;BME280;33504;52.066;6.096;2022-10-16T01:37:27;100893.68;;;13.73;53.63
47742;BME280;33504;52.066;6.096;2022-10-16T01:39:59;100896.20;;;13.77;53.63
47742;BME280;33504;52.066;6.096;2022-10-16T01:42:30;100907.83;;;13.75;53.63
47742;BME280;33504;52.066;6.096;2022-10-16T01:45:02;100905.42;;;13.90;53.24
47742;BME280;33504;52.066;6.096;2022-10-16T01:47:31;100913.09;;;14.09;53.47
47742;BME280;33504;52.066;6.096;2022-10-16T01:49:59;100909.67;;;13.71;53.62
47742;BME280;33504;52.066;6.096;2022-10-16T01:52:29;100905.67;;;13.86;53.44
47742;BME280;33504;52.066;6.096;2022-10-16T01:54:56;100906.93;;;13.93;53.35
47742;BME280;33504;52.066;6.096;2022-10-16T01:57:28;100906.06;;;14.25;53.22
47742;BME280;33504;52.066;6.096;2022-10-16T01:59:59;100906.12;;;13.82;53.72
47742;BME280;33504;52.066;6.096;2022-10-16T02:02:29;100912.60;;;14.06;53.80
47742;BME280;33504;52.066;6.096;2022-10-16T02:05:01;100919.70;;;14.18;53.46
47742;BME280;33504;52.066;6.096;2022-10-16T02:07:29;100923.20;;;13.70;53.97
47742;BME280;33504;52.066;6.096;2022-10-16T02:09:56;100915.47;;;13.94;53.51
47742;BME280;33504;52.066;6.096;2022-10-16T02:12:26;100910.11;;;13.96;53.45
47742;BME280;33504;52.066;6.096;2022-10-16T02:14:54;100917.07;;;13.57;54.25
47742;BME280;33504;52.066;6.096;2022-10-16T02:17:22;100918.51;;;14.17;53.61
47742;BME280;33504;52.066;6.096;2022-10-16T02:19:52;100920.80;;;13.97;53.49
47742;BME280;33504;52.066;6.096;2022-10-16T02:22:26;100928.10;;;14.04;53.26
47742;BME280;33504;52.066;6.096;2022-10-16T02:24:57;100921.15;;;14.13;53.10
47742;BME280;33504;52.066;6.096;2022-10-16T02:27:29;100922.00;;;14.23;53.43
47742;BME280;33504;52.066;6.096;2022-10-16T02:30:05;100927.46;;;14.27;53.01
47742;BME280;33504;52.066;6.096;2022-10-16T02:32:41;100926.71;;;14.22;53.07
47742;BME280;33504;52.066;6.096;2022-10-16T02:35:10;100932.70;;;13.96;53.18
47742;BME280;33504;52.066;6.096;2022-10-16T02:37:38;100925.83;;;14.04;53.38
47742;BME280;33504;52.066;6.096;2022-10-16T02:40:08;100927.39;;;13.94;53.21
47742;BME280;33504;52.066;6.096;2022-10-16T02:42:38;100921.62;;;14.09;53.32
47742;BME280;33504;52.066;6.096;2022-10-16T02:45:08;100918.99;;;13.73;53.54
47742;BME280;33504;52.066;6.096;2022-10-16T02:47:35;100916.79;;;14.12;53.74
47742;BME280;33504;52.066;6.096;2022-10-16T02:50:04;100917.12;;;14.14;53.75
47742;BME280;33504;52.066;6.096;2022-10-16T02:52:31;100907.64;;;14.09;53.06
47742;BME280;33504;52.066;6.096;2022-10-16T02:54:58;100914.07;;;13.84;53.55
47742;BME280;33504;52.066;6.096;2022-10-16T02:57:25;100914.45;;;14.47;52.96
47742;BME280;33504;52.066;6.096;2022-10-16T02:59:53;100918.50;;;14.18;52.93
47742;BME280;33504;52.066;6.096;2022-10-16T03:02:19;100926.22;;;14.05;53.05
47742;BME280;33504;52.066;6.096;2022-10-16T03:04:47;100932.70;;;13.61;54.02
47742;BME280;33504;52.066;6.096;2022-10-16T03:07:14;100939.76;;;13.55;54.38
47742;BME280;33504;52.066;6.096;2022-10-16T03:09:40;100932.21;;;13.86;53.75
47742;BME280;33504;52.066;6.096;2022-10-16T03:12:07;100937.15;;;13.49;54.43
47742;BME280;33504;52.066;6.096;2022-10-16T03:14:34;100939.38;;;13.74;54.09
47742;BME280;33504;52.066;6.096;2022-10-16T03:17:00;100935.05;;;13.99;53.59
47742;BME280;33504;52.066;6.096;2022-10-16T03:19:27;100928.33;;;14.19;53.20
47742;BME280;33504;52.066;6.096;2022-10-16T03:21:54;100923.57;;;14.44;53.27
47742;BME280;33504;52.066;6.096;2022-10-16T03:24:21;100923.06;;;14.28;53.71
47742;BME280;33504;52.066;6.096;2022-10-16T03:26:47;100926.06;;;14.51;53.38
47742;BME280;33504;52.066;6.096;2022-10-16T03:29:14;100930.66;;;14.41;53.56
47742;BME280;33504;52.066;6.096;2022-10-16T03:31:41;100935.16;;;14.58;53.28
47742;BME280;33504;52.066;6.096;2022-10-16T03:34:07;100933.88;;;14.31;53.80
47742;BME280;33504;52.066;6.096;2022-10-16T03:36:34;100939.33;;;13.83;54.12
47742;BME280;33504;52.066;6.096;2022-10-16T03:39:01;100936.31;;;14.01;53.40
47742;BME280;33504;52.066;6.096;2022-10-16T03:41:27;100936.29;;;14.07;53.82
47742;BME280;33504;52.066;6.096;2022-10-16T03:43:54;100944.29;;;14.27;53.35
47742;BME280;33504;52.066;6.096;2022-10-16T03:46:21;100945.90;;;14.66;53.09
47742;BME280;33504;52.066;6.096;2022-10-16T03:48:49;100941.91;;;14.52;52.79
47742;BME280;33504;52.066;6.096;2022-10-16T03:51:16;100946.93;;;14.24;52.92
47742;BME280;33504;52.066;6.096;2022-10-16T03:53:43;100953.15;;;14.47;52.80
47742;BME280;33504;52.066;6.096;2022-10-16T03:56:09;100956.01;;;14.34;53.08
47742;BME280;33504;52.066;6.096;2022-10-16T03:58:36;100958.29;;;14.30;53.63
47742;BME280;33504;52.066;6.096;2022-10-16T04:01:03;100954.91;;;14.30;53.18
47742;BME280;33504;52.066;6.096;2022-10-16T04:03:31;100953.45;;;14.08;53.58
47742;BME280;33504;52.066;6.096;2022-10-16T04:05:58;100951.45;;;14.15;53.49
47742;BME280;33504;52.066;6.096;2022-10-16T04:08:25;100950.20;;;14.16;53.51
47742;BME280;33504;52.066;6.096;2022-10-16T04:10:52;100954.64;;;13.94;53.47
47742;BME280;33504;52.066;6.096;2022-10-16T04:13:19;100964.53;;;13.88;54.57
47742;BME280;33504;52.066;6.096;2022-10-16T04:15:46;100965.15;;;14.23;53.82
47742;BME280;33504;52.066;6.096;2022-10-16T04:18:13;100968.90;;;14.18;53.72
47742;BME280;33504;52.066;6.096;2022-10-16T04:20:40;100972.47;;;13.69;53.75
47742;BME280;33504;52.066;6.096;2022-10-16T04:23:07;100977.93;;;14.28;53.41
47742;BME280;33504;52.066;6.096;2022-10-16T04:25:33;100983.82;;;13.67;53.66
47742;BME280;33504;52.066;6.096;2022-10-16T04:28:00;100987.97;;;14.18;53.98
47742;BME280;33504;52.066;6.096;2022-10-16T04:30:27;100981.09;;;13.80;54.13
47742;BME280;33504;52.066;6.096;2022-10-16T04:32:54;100981.45;;;13.96;53.89
47742;BME280;33504;52.066;6.096;2022-10-16T04:35:21;100989.26;;;13.98;54.61
47742;BME280;33504;52.066;6.096;2022-10-16T04:37:49;100993.60;;;14.00;53.89
47742;BME280;33504;52.066;6.096;2022-10-16T04:40:16;100999.97;;;13.97;54.58
47742;BME280;33504;52.066;6.096;2022-10-16T04:42:44;101000.98;;;13.91;54.07
47742;BME280;33504;52.066;6.096;2022-10-16T04:45:11;100997.27;;;13.29;55.07
47742;BME280;33504;52.066;6.096;2022-10-16T04:47:38;101002.50;;;13.89;54.20
47742;BME280;33504;52.066;6.096;2022-10-16T04:50:05;101006.91;;;14.06;54.47
47742;BME280;33504;52.066;6.096;2022-10-16T04:52:33;101011.80;;;13.86;55.02
47742;BME280;33504;52.066;6.096;2022-10-16T04:55:00;101010.53;;;13.91;54.31
47742;BME280;33504;52.066;6.096;2022-10-16T04:57:27;101007.19;;;13.77;55.03
47742;BME280;33504;52.066;6.096;2022-10-16T04:59:55;101008.73;;;13.89;54.69
47742;BME280;33504;52.066;6.096;2022-10-16T05:02:22;101013.12;;;14.23;54.04
47742;BME280;33504;52.066;6.096;2022-10-16T05:04:49;101019.82;;;13.94;54.59
47742;BME280;33504;52.066;6.096;2022-10-16T05:07:16;101027.82;;;13.69;54.62
47742;BME280;33504;52.066;6.096;2022-10-16T05:09:43;101032.79;;;13.66;55.16
47742;BME280;33504;52.066;6.096;2022-10-16T05:12:10;101032.25;;;13.86;54.21
47742;BME280;33504;52.066;6.096;2022-10-16T05:14:36;101028.98;;;14.10;54.31
47742;BME280;33504;52.066;6.096;2022-10-16T05:17:03;101023.74;;;13.76;54.55
47742;BME280;33504;52.066;6.096;2022-10-16T05:19:30;101031.02;;;14.18;54.17
47742;BME280;33504;52.066;6.096;2022-10-16T05:21:56;101034.38;;;14.12;53.72
47742;BME280;33504;52.066;6.096;2022-10-16T05:24:24;101039.62;;;13.93;54.48
47742;BME280;33504;52.066;6.096;2022-10-16T05:26:51;101041.37;;;14.17;53.94
47742;BME280;33504;52.066;6.096;2022-10-16T05:29:18;101041.72;;;13.98;53.81
47742;BME280;33504;52.066;6.096;2022-10-16T05:31:45;101039.50;;;13.85;54.05
47742;BME280;33504;52.066;6.096;2022-10-16T05:34:12;101044.34;;;13.59;54.50
47742;BME280;33504;52.066;6.096;2022-10-16T05:36:39;101051.71;;;14.03;54.09
47742;BME280;33504;52.066;6.096;2022-10-16T05:39:05;101056.39;;;13.71;54.19
47742;BME280;33504;52.066;6.096;2022-10-16T05:41:33;101053.46;;;13.84;54.01
47742;BME280;33504;52.066;6.096;2022-10-16T05:44:00;101068.99;;;13.80;54.03
47742;BME280;33504;52.066;6.096;2022-10-16T05:46:30;101065.77;;;13.67;54.17
47742;BME280;33504;52.066;6.096;2022-10-16T05:48:57;101074.57;;;13.80;54.55
47742;BME280;33504;52.066;6.096;2022-10-16T05:51:24;101079.71;;;13.43;54.70
47742;BME280;33504;52.066;6.096;2022-10-16T05:53:52;101085.75;;;13.74;54.05
47742;BME280;33504;52.066;6.096;2022-10-16T05:56:19;101093.36;;;13.98;53.97
47742;BME280;33504;52.066;6.096;2022-10-16T05:58:46;101100.67;;;13.80;54.42
47742;BME280;33504;52.066;6.096;2022-10-16T06:01:14;101105.91;;;13.14;55.79
47742;BME280;33504;52.066;6.096;2022-10-16T06:03:42;101110.27;;;13.74;54.65
47742;BME280;33504;52.066;6.096;2022-10-16T06:06:10;101106.62;;;13.60;54.99
47742;BME280;33504;52.066;6.096;2022-10-16T06:08:37;101109.24;;;13.49;55.07
47742;BME280;33504;52.066;6.096;2022-10-16T06:11:06;101120.31;;;13.40;55.22
47742;BME280;33504;52.066;6.096;2022-10-16T06:13:34;101123.15;;;14.11;54.89
47742;BME280;33504;52.066;6.096;2022-10-16T06:16:03;101126.31;;;13.84;54.37
47742;BME280;33504;52.066;6.096;2022-10-16T06:18:30;101125.26;;;13.40;54.71
47742;BME280;33504;52.066;6.096;2022-10-16T06:20:58;101128.32;;;14.05;53.93
47742;BME280;33504;52.066;6.096;2022-10-16T06:23:25;101125.65;;;13.93;54.15
47742;BME280;33504;52.066;6.096;2022-10-16T06:25:52;101131.67;;;13.88;54.05
47742;BME280;33504;52.066;6.096;2022-10-16T06:28:19;101130.43;;;13.43;54.74
47742;BME280;33504;52.066;6.096;2022-10-16T06:30:45;101130.94;;;13.92;54.23
47742;BME280;33504;52.066;6.096;2022-10-16T06:33:12;101137.07;;;13.43;54.84
47742;BME280;33504;52.066;6.096;2022-10-16T06:35:40;101140.45;;;13.90;54.01
47742;BME280;33504;52.066;6.096;2022-10-16T06:38:07;101144.46;;;13.74;54.92
47742;BME280;33504;52.066;6.096;2022-10-16T06:40:34;101147.76;;;13.90;54.54
47742;BME280;33504;52.066;6.096;2022-10-16T06:43:01;101151.27;;;13.86;54.25
47742;BME280;33504;52.066;6.096;2022-10-16T06:45:28;101160.01;;;14.11;54.41
47742;BME280;33504;52.066;6.096;2022-10-16T06:47:55;101164.81;;;14.24;54.20
47742;BME280;33504;52.066;6.096;2022-10-16T06:50:21;101171.64;;;13.97;54.24
47742;BME280;33504;52.066;6.096;2022-10-16T06:52:48;101171.89;;;14.16;54.48
47742;BME280;33504;52.066;6.096;2022-10-16T06:55:15;101180.34;;;13.39;55.97
47742;BME280;33504;52.066;6.096;2022-10-16T06:57:43;101183.03;;;13.36;55.81
47742;BME280;33504;52.066;6.096;2022-10-16T07:00:11;101195.63;;;13.76;55.44
47742;BME280;33504;52.066;6.096;2022-10-16T07:02:38;101193.09;;;14.04;54.94
47742;BME280;33504;52.066;6.096;2022-10-16T07:05:05;101198.10;;;13.62;55.31
47742;BME280;33504;52.066;6.096;2022-10-16T07:07:33;101201.87;;;14.08;54.90
47742;BME280;33504;52.066;6.096;2022-10-16T07:10:00;101200.94;;;13.72;55.85
47742;BME280;33504;52.066;6.096;2022-10-16T07:12:27;101204.22;;;13.94;54.88
47742;BME280;33504;52.066;6.096;2022-10-16T07:14:54;101206.42;;;14.19;54.44
47742;BME280;33504;52.066;6.096;2022-10-16T07:17:21;101206.77;;;14.27;54.20
47742;BME280;33504;52.066;6.096;2022-10-16T07:19:47;101210.73;;;14.60;54.44
47742;BME280;33504;52.066;6.096;2022-10-16T07:22:14;101223.33;;;14.10;54.79
47742;BME280;33504;52.066;6.096;2022-10-16T07:24:41;101226.56;;;14.21;54.14
47742;BME280;33504;52.066;6.096;2022-10-16T07:27:07;101232.36;;;14.41;54.08
47742;BME280;33504;52.066;6.096;2022-10-16T07:29:34;101231.32;;;14.17;54.13
47742;BME280;33504;52.066;6.096;2022-10-16T07:32:02;101238.77;;;14.40;54.38
47742;BME280;33504;52.066;6.096;2022-10-16T07:34:28;101252.39;;;14.56;53.70
47742;BME280;33504;52.066;6.096;2022-10-16T07:36:56;101258.83;;;14.31;53.93
47742;BME280;33504;52.066;6.096;2022-10-16T07:39:22;101261.13;;;14.99;53.38
47742;BME280;33504;52.066;6.096;2022-10-16T07:41:49;101262.70;;;14.90;53.13
47742;BME280;33504;52.066;6.096;2022-10-16T07:44:16;101268.64;;;14.64;53.45
47742;BME280;33504;52.066;6.096;2022-10-16T07:46:42;101276.79;;;15.94;52.37
47742;BME280;33504;52.066;6.096;2022-10-16T07:49:10;101268.07;;;16.78;50.71
47742;BME280;33504;52.066;6.096;2022-10-16T07:51:36;101278.59;;;16.75;49.39
47742;BME280;33504;52.066;6.096;2022-10-16T07:54:03;101280.70;;;16.25;49.71
47742;BME280;33504;52.066;6.096;2022-10-16T07:56:30;101280.42;;;16.50;49.69
47742;BME280;33504;52.066;6.096;2022-10-16T07:58:57;101291.02;;;16.50;49.88
47742;BME280;33504;52.066;6.096;2022-10-16T08:01:24;101289.35;;;16.01;49.76
47742;BME280;33504;52.066;6.096;2022-10-16T08:03:51;101294.83;;;16.10;50.56
47742;BME280;33504;52.066;6.096;2022-10-16T08:06:19;101293.87;;;16.34;49.37
47742;BME280;33504;52.066;6.096;2022-10-16T08:08:46;101299.92;;;16.41;49.66
47742;BME280;33504;52.066;6.096;2022-10-16T08:11:13;101296.10;;;16.67;49.26
47742;BME280;33504;52.066;6.096;2022-10-16T08:13:41;101298.05;;;16.86;48.96
47742;BME280;33504;52.066;6.096;2022-10-16T08:16:08;101291.31;;;17.40;48.09
47742;BME280;33504;52.066;6.096;2022-10-16T08:18:36;101292.62;;;17.79;46.81
47742;BME280;33504;52.066;6.096;2022-10-16T08:21:04;101295.73;;;18.37;46.21
47742;BME280;33504;52.066;6.096;2022-10-16T08:23:32;101297.58;;;18.67;44.87
47742;BME280;33504;52.066;6.096;2022-10-16T08:26:03;101307.25;;;19.17;44.56
47742;BME280;33504;52.066;6.096;2022-10-16T08:28:31;101305.20;;;19.07;44.23
47742;BME280;33504;52.066;6.096;2022-10-16T08:31:06;101310.42;;;19.19;43.40
47742;BME280;33504;52.066;6.096;2022-10-16T08:33:33;101313.37;;;19.14;43.90
47742;BME280;33504;52.066;6.096;2022-10-16T08:36:00;101317.10;;;19.15;43.54
47742;BME280;33504;52.066;6.096;2022-10-16T08:38:28;101320.51;;;19.69;43.34
47742;BME280;33504;52.066;6.096;2022-10-16T08:41:02;101325.76;;;19.92;42.92
47742;BME280;33504;52.066;6.096;2022-10-16T08:43:50;101316.28;;;20.08;41.80
47742;BME280;33504;52.066;6.096;2022-10-16T08:46:34;101317.47;;;20.50;41.69
47742;BME280;33504;52.066;6.096;2022-10-16T08:49:05;101326.72;;;20.06;41.06
47742;BME280;33504;52.066;6.096;2022-10-16T08:51:36;101330.80;;;20.74;40.92
47742;BME280;33504;52.066;6.096;2022-10-16T08:54:04;101329.98;;;20.59;40.40
47742;BME280;33504;52.066;6.096;2022-10-16T08:56:32;101339.22;;;21.17;39.55
47742;BME280;33504;52.066;6.096;2022-10-16T08:58:59;101341.27;;;21.09;39.70
47742;BME280;33504;52.066;6.096;2022-10-16T09:01:37;101345.07;;;21.20;39.07
47742;BME280;33504;52.066;6.096;2022-10-16T09:04:26;101349.84;;;21.73;38.47
47742;BME280;33504;52.066;6.096;2022-10-16T09:07:01;101350.47;;;22.14;37.78
47742;BME280;33504;52.066;6.096;2022-10-16T09:09:46;101356.26;;;22.36;37.22
47742;BME280;33504;52.066;6.096;2022-10-16T09:12:21;101355.03;;;22.11;37.24
47742;BME280;33504;52.066;6.096;2022-10-16T09:15:01;101359.90;;;21.50;37.88
47742;BME280;33504;52.066;6.096;2022-10-16T09:17:37;101368.63;;;22.24;37.35
47742;BME280;33504;52.066;6.096;2022-10-16T09:20:28;101371.94;;;22.12;37.02
47742;BME280;33504;52.066;6.096;2022-10-16T09:23:12;101377.05;;;22.05;37.16
47742;BME280;33504;52.066;6.096;2022-10-16T09:25:42;101381.95;;;22.47;37.39
47742;BME280;33504;52.066;6.096;2022-10-16T09:28:10;101386.40;;;22.63;36.14
47742;BME280;33504;52.066;6.096;2022-10-16T09:30:38;101392.49;;;23.25;36.76
47742;BME280;33504;52.066;6.096;2022-10-16T09:33:07;101395.15;;;23.38;35.68
47742;BME280;33504;52.066;6.096;2022-10-16T09:35:37;101395.82;;;23.17;35.16
47742;BME280;33504;52.066;6.096;2022-10-16T09:38:06;101399.49;;;23.04;34.54
47742;BME280;33504;52.066;6.096;2022-10-16T09:40:35;101402.95;;;23.11;34.87
47742;BME280;33504;52.066;6.096;2022-10-16T09:43:14;101396.45;;;22.85;34.94
47742;BME280;33504;52.066;6.096;2022-10-16T09:45:54;101399.19;;;23.53;34.95
47742;BME280;33504;52.066;6.096;2022-10-16T09:48:28;101403.32;;;23.89;34.31
47742;BME280;33504;52.066;6.096;2022-10-16T09:51:00;101412.29;;;24.18;34.08
47742;BME280;33504;52.066;6.096;2022-10-16T09:53:39;101414.65;;;24.11;32.67
47742;BME280;33504;52.066;6.096;2022-10-16T09:56:10;101423.89;;;24.66;33.35
47742;BME280;33504;52.066;6.096;2022-10-16T09:58:37;101415.99;;;24.95;31.90
47742;BME280;33504;52.066;6.096;2022-10-16T10:01:05;101416.06;;;25.03;31.90
47742;BME280;33504;52.066;6.096;2022-10-16T10:03:36;101419.09;;;24.88;31.87
47742;BME280;33504;52.066;6.096;2022-10-16T10:06:15;101420.52;;;25.13;31.92
47742;BME280;33504;52.066;6.096;2022-10-16T10:08:53;101423.61;;;25.43;31.69
47742;BME280;33504;52.066;6.096;2022-10-16T10:11:37;101426.33;;;25.64;30.68
47742;BME280;33504;52.066;6.096;2022-10-16T10:14:05;101433.75;;;26.25;31.35
47742;BME280;33504;52.066;6.096;2022-10-16T10:16:32;101426.87;;;25.56;30.83
47742;BME280;33504;52.066;6.096;2022-10-16T10:19:00;101431.59;;;25.62;31.09
47742;BME280;33504;52.066;6.096;2022-10-16T10:21:27;101436.23;;;24.13;31.77
47742;BME280;33504;52.066;6.096;2022-10-16T10:23:55;101432.42;;;24.92;31.87
47742;BME280;33504;52.066;6.096;2022-10-16T10:26:24;101437.58;;;24.54;32.24
47742;BME280;33504;52.066;6.096;2022-10-16T10:29:00;101437.78;;;24.67;32.45
47742;BME280;33504;52.066;6.096;2022-10-16T10:31:33;101434.70;;;24.99;31.31
47742;BME280;33504;52.066;6.096;2022-10-16T10:34:16;101431.80;;;26.05;31.37
47742;BME280;33504;52.066;6.096;2022-10-16T10:36:48;101438.72;;;25.51;30.10
47742;BME280;33504;52.066;6.096;2022-10-16T10:39:25;101437.68;;;26.06;29.07
47742;BME280;33504;52.066;6.096;2022-10-16T10:42:09;101441.45;;;26.14;31.02
47742;BME280;33504;52.066;6.096;2022-10-16T10:44:55;101440.10;;;26.49;29.10
47742;BME280;33504;52.066;6.096;2022-10-16T10:47:35;101435.83;;;27.07;28.42
47742;BME280;33504;52.066;6.096;2022-10-16T10:50:14;101436.15;;;26.64;28.78
47742;BME280;33504;52.066;6.096;2022-10-16T10:52:53;101439.87;;;26.45;28.79
47742;BME280;33504;52.066;6.096;2022-10-16T10:55:33;101440.04;;;26.51;28.20
47742;BME280;33504;52.066;6.096;2022-10-16T10:58:19;101447.05;;;26.01;28.58
47742;BME280;33504;52.066;6.096;2022-10-16T11:00:56;101445.22;;;26.42;28.49
47742;BME280;33504;52.066;6.096;2022-10-16T11:03:35;101454.44;;;26.30;28.12
47742;BME280;33504;52.066;6.096;2022-10-16T11:06:10;101446.34;;;26.07;28.61
47742;BME280;33504;52.066;6.096;2022-10-16T11:08:42;101451.18;;;26.53;29.02
47742;BME280;33504;52.066;6.096;2022-10-16T11:11:16;101453.46;;;25.38;29.07
47742;BME280;33504;52.066;6.096;2022-10-16T11:13:50;101452.71;;;24.65;29.56
47742;BME280;33504;52.066;6.096;2022-10-16T11:16:23;101453.54;;;24.94;29.55
47742;BME280;33504;52.066;6.096;2022-10-16T11:18:58;101458.06;;;23.91;29.81
47742;BME280;33504;52.066;6.096;2022-10-16T11:21:32;101461.86;;;24.04;30.16
47742;BME280;33504;52.066;6.096;2022-10-16T11:24:06;101460.02;;;24.30;30.46
47742;BME280;33504;52.066;6.096;2022-10-16T11:26:41;101469.31;;;23.56;30.45
47742;BME280;33504;52.066;6.096;2022-10-16T11:29:17;101475.38;;;24.22;31.23
47742;BME280;33504;52.066;6.096;2022-10-16T11:31:50;101466.99;;;23.62;30.83
47742;BME280;33504;52.066;6.096;2022-10-16T11:34:24;101470.61;;;22.80;31.65
47742;BME280;33504;52.066;6.096;2022-10-16T11:36:56;101473.48;;;23.22;32.07
47742;BME280;33504;52.066;6.096;2022-10-16T11:39:26;101467.36;;;23.48;32.50
47742;BME280;33504;52.066;6.096;2022-10-16T11:41:56;101470.32;;;23.19;32.07
47742;BME280;33504;52.066;6.096;2022-10-16T11:44:35;101479.40;;;23.17;32.73
47742;BME280;33504;52.066;6.096;2022-10-16T11:47:13;101481.87;;;22.34;33.16
47742;BME280;33504;52.066;6.096;2022-10-16T11:49:42;101490.79;;;22.44;33.33
47742;BME280;33504;52.066;6.096;2022-10-16T11:52:17;101490.27;;;22.32;33.55
47742;BME280;33504;52.066;6.096;2022-10-16T11:54:50;101481.91;;;22.21;33.30
47742;BME280;33504;52.066;6.096;2022-10-16T11:57:22;101480.86;;;21.97;33.22
47742;BME280;33504;52.066;6.096;2022-10-16T11:59:54;101485.68;;;22.30;33.09
47742;BME280;33504;52.066;6.096;2022-10-16T12:02:32;101481.68;;;22.47;33.42
47742;BME280;33504;52.066;6.096;2022-10-16T12:05:11;101482.95;;;21.92;33.64
47742;BME280;33504;52.066;6.096;2022-10-16T12:07:44;101490.41;;;22.13;34.38
47742;BME280;33504;52.066;6.096;2022-10-16T12:10:20;101497.06;;;22.03;33.29
47742;BME280;33504;52.066;6.096;2022-10-16T12:12:48;101496.46;;;21.71;34.40
47742;BME280;33504;52.066;6.096;2022-10-16T12:15:22;101493.98;;;21.29;34.34
47742;BME280;33504;52.066;6.096;2022-10-16T12:17:50;101492.75;;;21.53;34.16
47742;BME280;33504;52.066;6.096;2022-10-16T12:20:22;101491.13;;;21.40;34.12
47742;BME280;33504;52.066;6.096;2022-10-16T12:22:51;101502.25;;;21.41;34.32
47742;BME280;33504;52.066;6.096;2022-10-16T12:25:21;101505.77;;;21.84;34.12
47742;BME280;33504;52.066;6.096;2022-10-16T12:28:00;101506.37;;;21.27;34.52
47742;BME280;33504;52.066;6.096;2022-10-16T12:30:31;101507.96;;;21.45;34.43
47742;BME280;33504;52.066;6.096;2022-10-16T12:33:00;101510.46;;;21.62;34.68
47742;BME280;33504;52.066;6.096;2022-10-16T12:35:30;101504.07;;;21.70;34.98
47742;BME280;33504;52.066;6.096;2022-10-16T12:38:11;101502.65;;;21.84;34.57
47742;BME280;33504;52.066;6.096;2022-10-16T12:40:43;101505.50;;;21.83;33.42
47742;BME280;33504;52.066;6.096;2022-10-16T12:43:25;101506.50;;;21.75;32.72
47742;BME280;33504;52.066;6.096;2022-10-16T12:46:02;101506.73;;;21.30;32.27
47742;BME280;33504;52.066;6.096;2022-10-16T12:48:30;101512.18;;;21.42;32.59
47742;BME280;33504;52.066;6.096;2022-10-16T12:51:10;101512.46;;;21.68;32.20
47742;BME280;33504;52.066;6.096;2022-10-16T12:53:37;101516.43;;;21.91;33.07
47742;BME280;33504;52.066;6.096;2022-10-16T12:56:16;101523.66;;;22.50;32.42
47742;BME280;33504;52.066;6.096;2022-10-16T12:59:01;101520.54;;;22.50;32.17
47742;BME280;33504;52.066;6.096;2022-10-16T13:01:41;101526.03;;;22.62;31.70
47742;BME280;33504;52.066;6.096;2022-10-16T13:04:48;101531.62;;;22.56;32.10
47742;BME280;33504;52.066;6.096;2022-10-16T13:07:32;101528.33;;;21.97;32.58